createdAt,value
2023-02-14T00:01:44.066Z,2.50
2023-02-14T00:04:10.698Z,2.49
2023-02-14T00:06:39.256Z,2.44
2023-02-14T00:09:07.598Z,2.31
2023-02-14T00:11:34.168Z,2.26
2023-02-14T00:14:19.119Z,2.24
2023-02-14T00:16:46.198Z,2.17
2023-02-14T00:19:15.301Z,2.22
2023-02-14T00:21:42.219Z,2.26
2023-02-14T00:24:11.928Z,2.21
2023-02-14T00:26:38.894Z,2.14
2023-02-14T00:29:13.513Z,2.10
2023-02-14T00:31:41.611Z,2.13
2023-02-14T00:34:09.041Z,2.14
2023-02-14T00:36:36.791Z,2.12
2023-02-14T00:39:09.285Z,2.04
2023-02-14T00:41:36.218Z,1.87
2023-02-14T00:44:02.975Z,1.77
2023-02-14T00:46:29.670Z,1.77
2023-02-14T00:48:56.779Z,1.74
2023-02-14T00:51:23.937Z,1.65
2023-02-14T00:53:51.467Z,1.55
2023-02-14T00:56:20.285Z,1.49
2023-02-14T00:58:47.369Z,1.53
2023-02-14T01:01:15.625Z,1.57
2023-02-14T01:03:42.570Z,1.55
2023-02-14T01:06:09.672Z,1.57
2023-02-14T01:08:36.200Z,1.53
2023-02-14T01:11:18.205Z,1.50
2023-02-14T01:13:45.784Z,1.50
2023-02-14T01:16:16.019Z,1.47
2023-02-14T01:18:44.092Z,1.47
2023-02-14T01:21:15.166Z,1.47
2023-02-14T01:23:42.775Z,1.41
2023-02-14T01:26:10.719Z,1.39
2023-02-14T01:28:37.823Z,1.38
2023-02-14T01:31:17.116Z,1.38
2023-02-14T01:33:47.099Z,1.37
2023-02-14T01:36:19.077Z,1.35
2023-02-14T01:38:45.985Z,1.34
2023-02-14T01:41:13.278Z,1.28
2023-02-14T01:43:55.954Z,1.18
2023-02-14T01:46:23.424Z,1.12
2023-02-14T01:48:51.076Z,1.12
2023-02-14T01:51:20.145Z,1.14
2023-02-14T01:53:47.785Z,1.16
2023-02-14T01:56:21.168Z,1.16
2023-02-14T01:58:52.803Z,1.16
2023-02-14T02:01:20.067Z,1.12
2023-02-14T02:03:55.989Z,1.09
2023-02-14T02:06:35.662Z,1.07
2023-02-14T02:09:15.119Z,1.10
2023-02-14T02:11:42.848Z,1.08
2023-02-14T02:14:16.008Z,1.10
2023-02-14T02:16:47.820Z,1.14
2023-02-14T02:19:36.549Z,1.16
2023-02-14T02:22:46.857Z,1.16
2023-02-14T02:25:59.180Z,1.16
2023-02-14T02:28:51.710Z,1.15
2023-02-14T02:31:52.425Z,1.16
2023-02-14T02:34:56.233Z,1.16
2023-02-14T02:37:31.580Z,1.15
2023-02-14T02:40:13.167Z,1.15
2023-02-14T02:43:02.674Z,1.11
2023-02-14T02:45:56.952Z,1.06
2023-02-14T02:48:32.189Z,1.05
2023-02-14T02:51:20.669Z,1.09
2023-02-14T02:54:02.919Z,1.10
2023-02-14T02:56:46.948Z,1.07
2023-02-14T02:59:22.081Z,1.05
2023-02-14T03:01:54.885Z,1.08
2023-02-14T03:04:44.905Z,1.11
2023-02-14T03:07:30.935Z,1.08
2023-02-14T03:10:00.890Z,1.03
2023-02-14T03:12:33.317Z,1.05
2023-02-14T03:15:11.027Z,1.06
2023-02-14T03:17:43.684Z,1.06
2023-02-14T03:20:45.567Z,1.01
2023-02-14T03:23:22.495Z,0.96
2023-02-14T03:25:54.939Z,0.92
2023-02-14T03:28:47.223Z,0.93
2023-02-14T03:31:16.624Z,0.98
2023-02-14T03:34:03.715Z,0.96
2023-02-14T03:36:33.668Z,0.87
2023-02-14T03:39:10.850Z,0.82
2023-02-14T03:41:51.674Z,0.82
2023-02-14T03:44:22.248Z,0.78
2023-02-14T03:47:01.455Z,0.79
2023-02-14T03:49:35.003Z,0.79
2023-02-14T03:52:03.965Z,0.78
2023-02-14T03:54:32.961Z,0.77
2023-02-14T03:57:24.943Z,0.71
2023-02-14T03:59:53.324Z,0.63
2023-02-14T04:02:37.961Z,0.57
2023-02-14T04:05:11.963Z,0.58
2023-02-14T04:07:48.977Z,0.62
2023-02-14T04:10:16.858Z,0.64
2023-02-14T04:12:43.654Z,0.61
2023-02-14T04:15:10.737Z,0.51
2023-02-14T04:18:03.613Z,0.55
2023-02-14T04:20:30.508Z,0.57
2023-02-14T04:22:57.658Z,0.58
2023-02-14T04:25:24.551Z,0.57
2023-02-14T04:27:52.061Z,0.51
2023-02-14T04:30:20.826Z,0.51
2023-02-14T04:32:47.503Z,0.52
2023-02-14T04:35:14.650Z,0.47
2023-02-14T04:37:42.873Z,0.36
2023-02-14T04:40:10.146Z,0.26
2023-02-14T04:42:36.862Z,0.22
2023-02-14T04:45:05.526Z,0.21
2023-02-14T04:47:32.443Z,0.12
2023-02-14T04:49:59.108Z,0.04
2023-02-14T04:52:27.422Z,0.01
2023-02-14T04:57:34.706Z,-0.10
2023-02-14T05:00:01.459Z,-0.18
2023-02-14T05:02:32.258Z,-0.17
2023-02-14T05:04:59.621Z,-0.16
2023-02-14T05:07:26.239Z,-0.10
2023-02-14T05:09:52.766Z,-0.06
2023-02-14T05:12:19.560Z,-0.04
2023-02-14T05:17:27.613Z,-0.02
2023-02-14T05:19:54.482Z,-0.02
2023-02-14T05:22:21.404Z,-0.10
2023-02-14T05:24:48.002Z,-0.14
2023-02-14T05:27:14.662Z,-0.12
2023-02-14T05:29:44.100Z,-0.16
2023-02-14T05:32:11.618Z,-0.16
2023-02-14T05:34:38.433Z,-0.17
2023-02-14T05:37:05.089Z,-0.19
2023-02-14T05:39:32.593Z,-0.20
2023-02-14T05:41:59.585Z,-0.22
2023-02-14T05:44:26.323Z,-0.26
2023-02-14T05:46:53.157Z,-0.29
2023-02-14T05:49:20.127Z,-0.28
2023-02-14T05:51:47.110Z,-0.31
2023-02-14T05:54:13.736Z,-0.40
2023-02-14T05:56:40.479Z,-0.44
2023-02-14T05:59:10.680Z,-0.47
2023-02-14T06:01:37.421Z,-0.46
2023-02-14T06:04:04.190Z,-0.44
2023-02-14T06:06:31.584Z,-0.44
2023-02-14T06:09:02.268Z,-0.49
2023-02-14T06:11:29.583Z,-0.55
2023-02-14T06:13:57.078Z,-0.56
2023-02-14T06:16:23.834Z,-0.60
2023-02-14T06:18:50.417Z,-0.60
2023-02-14T06:21:17.257Z,-0.61
2023-02-14T06:23:45.505Z,-0.58
2023-02-14T06:26:13.785Z,-0.51
2023-02-14T06:28:40.284Z,-0.46
2023-02-14T06:31:07.023Z,-0.44
2023-02-14T06:33:33.790Z,-0.43
2023-02-14T06:36:00.431Z,-0.40
2023-02-14T06:38:29.085Z,-0.37
2023-02-14T06:40:55.570Z,-0.42
2023-02-14T06:43:22.333Z,-0.39
2023-02-14T06:45:48.809Z,-0.37
2023-02-14T06:48:15.662Z,-0.36
2023-02-14T06:50:43.151Z,-0.37
2023-02-14T06:53:09.812Z,-0.40
2023-02-14T06:55:36.503Z,-0.44
2023-02-14T06:58:03.317Z,-0.44
2023-02-14T07:00:30.094Z,-0.45
2023-02-14T07:02:57.784Z,-0.40
2023-02-14T07:05:24.575Z,-0.43
2023-02-14T07:07:52.866Z,-0.46
2023-02-14T07:10:19.973Z,-0.46
2023-02-14T07:12:46.790Z,-0.47
2023-02-14T07:15:13.582Z,-0.42
2023-02-14T07:17:48.225Z,-0.37
2023-02-14T07:20:15.775Z,-0.39
2023-02-14T07:22:42.748Z,-0.41
2023-02-14T07:25:13.158Z,-0.43
2023-02-14T07:27:40.169Z,-0.44
2023-02-14T07:30:08.585Z,-0.50
2023-02-14T07:32:38.413Z,-0.53
2023-02-14T07:35:05.657Z,-0.57
2023-02-14T07:37:33.705Z,-0.58
2023-02-14T07:40:00.267Z,-0.54
2023-02-14T07:42:27.153Z,-0.50
2023-02-14T07:44:53.792Z,-0.45
2023-02-14T07:47:20.400Z,-0.38
2023-02-14T07:49:46.955Z,-0.28
2023-02-14T07:52:13.442Z,-0.21
2023-02-14T07:54:41.309Z,-0.14
2023-02-14T07:57:08.093Z,-0.08
2023-02-14T07:59:36.213Z,-0.01
2023-02-14T08:02:04.767Z,0.08
2023-02-14T08:04:33.752Z,0.10
2023-02-14T08:07:00.798Z,0.16
2023-02-14T08:09:27.545Z,0.23
2023-02-14T08:12:15.611Z,0.29
2023-02-14T08:14:43.486Z,0.31
2023-02-14T08:17:11.679Z,0.34
2023-02-14T08:19:38.425Z,0.40
2023-02-14T08:22:05.497Z,0.43
2023-02-14T08:24:32.496Z,0.47
2023-02-14T08:26:59.860Z,0.52
2023-02-14T08:29:26.486Z,0.58
2023-02-14T08:31:53.762Z,0.63
2023-02-14T08:34:22.240Z,0.71
2023-02-14T08:36:48.946Z,0.76
2023-02-14T08:39:15.538Z,0.83
2023-02-14T08:41:42.049Z,0.89
2023-02-14T08:44:08.890Z,0.96
2023-02-14T08:46:36.056Z,1.03
2023-02-14T08:49:02.835Z,1.09
2023-02-14T08:51:29.614Z,1.17
2023-02-14T08:53:56.485Z,1.27
2023-02-14T08:56:24.427Z,1.34
2023-02-14T08:58:55.267Z,1.43
2023-02-14T09:01:22.412Z,1.52
2023-02-14T09:03:49.137Z,1.62
2023-02-14T09:06:17.542Z,1.72
2023-02-14T09:08:44.998Z,1.80
2023-02-14T09:11:18.898Z,1.88
2023-02-14T09:13:47.441Z,1.93
2023-02-14T09:16:19.280Z,2.00
2023-02-14T09:18:47.418Z,2.05
2023-02-14T09:21:17.283Z,2.14
2023-02-14T09:23:44.405Z,2.20
2023-02-14T09:26:13.705Z,2.30
2023-02-14T09:28:42.040Z,2.38
2023-02-14T09:31:14.644Z,2.46
2023-02-14T09:33:46.282Z,2.56
2023-02-14T09:36:18.838Z,2.69
2023-02-14T09:38:47.694Z,2.79
2023-02-14T09:41:31.070Z,2.87
2023-02-14T09:44:44.646Z,2.97
2023-02-14T09:47:35.634Z,3.12
2023-02-14T09:50:07.148Z,3.25
2023-02-14T09:52:37.829Z,3.38
2023-02-14T09:55:14.920Z,3.45
2023-02-14T09:57:56.935Z,3.62
2023-02-14T10:00:31.291Z,3.71
2023-02-14T10:03:29.273Z,3.78
2023-02-14T10:06:12.291Z,3.90
2023-02-14T10:08:44.215Z,3.96
2023-02-14T10:11:20.750Z,4.08
2023-02-14T10:13:54.559Z,4.12
2023-02-14T10:16:28.910Z,4.23
2023-02-14T10:19:05.235Z,4.33
2023-02-14T10:21:43.113Z,4.46
2023-02-14T10:24:21.668Z,4.51
2023-02-14T10:26:54.775Z,4.62
2023-02-14T10:29:22.667Z,4.73
2023-02-14T10:32:04.481Z,4.73
2023-02-14T10:34:46.024Z,4.88
2023-02-14T10:37:17.747Z,5.01
2023-02-14T10:40:00.573Z,5.08
2023-02-14T10:43:12.923Z,5.15
2023-02-14T10:45:52.894Z,5.30
2023-02-14T10:48:42.788Z,5.49
2023-02-14T10:51:25.766Z,5.54
2023-02-14T10:54:13.703Z,5.72
2023-02-14T10:57:19.255Z,5.88
2023-02-14T11:00:14.281Z,5.98
2023-02-14T11:02:49.932Z,6.00
2023-02-14T11:05:41.090Z,6.00
2023-02-14T11:08:20.125Z,6.12
2023-02-14T11:10:50.630Z,6.17
2023-02-14T11:13:36.078Z,6.38
2023-02-14T11:20:12.997Z,6.50
2023-02-14T11:22:39.834Z,6.57
2023-02-14T11:25:30.689Z,6.70
2023-02-14T11:28:12.480Z,6.89
2023-02-14T11:30:47.805Z,6.98
2023-02-14T11:33:33.493Z,7.05
2023-02-14T11:36:03.244Z,7.03
2023-02-14T11:38:36.186Z,7.24
2023-02-14T11:41:04.959Z,7.39
2023-02-14T11:43:45.860Z,7.46
2023-02-14T11:46:36.144Z,7.47
2023-02-14T11:49:09.464Z,7.46
2023-02-14T11:51:42.174Z,7.47
2023-02-14T11:54:27.719Z,7.53
2023-02-14T11:57:06.023Z,7.60
2023-02-14T11:59:43.626Z,7.62
2023-02-14T12:02:29.439Z,7.78
2023-02-14T12:07:45.822Z,7.94
2023-02-14T12:10:19.051Z,7.98
2023-02-14T12:12:48.586Z,8.03
2023-02-14T12:15:25.230Z,8.01
2023-02-14T12:17:58.884Z,8.10
2023-02-14T12:20:49.379Z,8.22
2023-02-14T12:23:26.413Z,8.28
2023-02-14T12:25:59.113Z,8.36
2023-02-14T12:28:38.661Z,8.55
2023-02-14T12:31:13.580Z,8.66
2023-02-14T12:33:41.202Z,8.71
2023-02-14T12:36:30.931Z,8.75
2023-02-14T12:39:16.603Z,8.84
2023-02-14T12:42:00.340Z,8.91
2023-02-14T12:44:59.586Z,8.95
2023-02-14T12:47:54.983Z,9.08
2023-02-14T12:50:37.992Z,9.11
2023-02-14T12:53:25.984Z,9.09
2023-02-14T12:56:11.501Z,9.07
2023-02-14T12:58:51.014Z,9.09
2023-02-14T13:01:39.221Z,9.10
2023-02-14T13:04:34.184Z,9.24
2023-02-14T13:07:13.807Z,9.40
2023-02-14T13:09:54.634Z,9.46
2023-02-14T13:12:44.488Z,9.49
2023-02-14T13:15:27.587Z,9.50
2023-02-14T13:18:12.522Z,9.64
2023-02-14T13:20:58.350Z,9.66
2023-02-14T13:23:36.143Z,9.67
2023-02-14T13:26:29.617Z,9.67
2023-02-14T13:29:02.310Z,9.73
2023-02-14T13:46:02.821Z,10.04
2023-02-14T13:48:30.845Z,10.09
2023-02-14T13:50:59.986Z,10.13
2023-02-14T13:53:34.712Z,10.16
2023-02-14T13:56:24.782Z,10.16
2023-02-14T13:59:06.055Z,10.19
2023-02-14T14:01:51.610Z,10.21
2023-02-14T14:04:31.935Z,10.23
2023-02-14T14:07:04.652Z,10.28
2023-02-14T14:09:43.873Z,10.31
2023-02-14T14:12:28.824Z,10.39
2023-02-14T14:15:08.235Z,10.39
2023-02-14T14:17:39.406Z,10.44
2023-02-14T14:20:21.725Z,10.46
2023-02-14T14:22:50.678Z,10.47
2023-02-14T14:25:37.930Z,10.48
2023-02-14T14:28:12.096Z,10.47
2023-02-14T14:30:44.666Z,10.46
2023-02-14T14:33:31.975Z,10.50
2023-02-14T14:36:21.683Z,10.56
2023-02-14T14:38:51.241Z,10.56
2023-02-14T14:41:19.248Z,10.59
2023-02-14T14:43:47.844Z,10.59
2023-02-14T14:46:16.085Z,10.57
2023-02-14T14:48:51.590Z,10.61
2023-02-14T14:51:31.495Z,10.59
2023-02-14T14:54:03.514Z,10.59
2023-02-14T14:56:35.670Z,10.59
2023-02-14T14:59:35.766Z,10.57
2023-02-14T15:02:04.215Z,10.56
2023-02-14T15:04:32.693Z,10.55
2023-02-14T15:07:27.864Z,10.54
2023-02-14T15:09:54.665Z,10.51
2023-02-14T15:12:43.334Z,10.49
2023-02-14T15:15:16.930Z,10.43
2023-02-14T15:17:45.996Z,10.42
2023-02-14T15:20:24.204Z,10.37
2023-02-14T15:22:55.204Z,10.34
2023-02-14T15:25:22.526Z,10.32
2023-02-14T15:27:49.743Z,10.25
2023-02-14T15:30:21.930Z,10.22
2023-02-14T15:32:50.642Z,10.17
2023-02-14T15:35:24.255Z,10.06
2023-02-14T15:37:52.151Z,10.02
2023-02-14T15:40:24.625Z,10.01
2023-02-14T15:42:59.121Z,9.98
2023-02-14T15:45:26.261Z,9.95
2023-02-14T15:47:55.850Z,9.89
2023-02-14T15:50:27.924Z,9.85
2023-02-14T15:53:00.352Z,9.77
2023-02-14T15:55:28.055Z,9.70
2023-02-14T15:58:02.995Z,9.64
2023-02-14T16:00:31.802Z,9.55
2023-02-14T16:03:23.898Z,9.46
2023-02-14T16:05:51.444Z,9.37
2023-02-14T16:08:37.781Z,9.26
2023-02-14T16:11:14.668Z,9.13
2023-02-14T16:13:47.799Z,9.04
2023-02-14T16:16:15.707Z,8.93
2023-02-14T16:18:43.804Z,8.84
2023-02-14T16:21:16.407Z,8.77
2023-02-14T16:23:45.940Z,8.73
2023-02-14T16:26:13.296Z,8.67
2023-02-14T16:28:43.034Z,8.59
2023-02-14T16:31:15.532Z,8.50
2023-02-14T16:33:44.917Z,8.38
2023-02-14T16:36:26.453Z,8.28
2023-02-14T16:38:53.580Z,8.24
2023-02-14T16:41:26.438Z,8.18
2023-02-14T16:43:55.505Z,8.11
2023-02-14T16:46:26.226Z,8.04
2023-02-14T16:48:53.176Z,7.97
2023-02-14T16:51:22.571Z,7.90
2023-02-14T16:53:50.515Z,7.81
2023-02-14T16:56:26.091Z,7.77
2023-02-14T16:58:52.741Z,7.71
2023-02-14T17:01:19.438Z,7.65
2023-02-14T17:03:46.292Z,7.57
2023-02-14T17:06:17.097Z,7.53
2023-02-14T17:08:44.021Z,7.45
2023-02-14T17:11:11.367Z,7.39
2023-02-14T17:13:41.291Z,7.32
2023-02-14T17:16:11.948Z,7.30
2023-02-14T17:18:41.646Z,7.23
2023-02-14T17:21:11.997Z,7.16
2023-02-14T17:23:38.651Z,7.07
2023-02-14T17:26:06.155Z,7.00
2023-02-14T17:28:33.353Z,6.96
2023-02-14T17:31:01.151Z,6.93
2023-02-14T17:33:30.467Z,6.89
2023-02-14T17:36:06.814Z,6.82
2023-02-14T17:38:35.922Z,6.76
2023-02-14T17:41:22.780Z,6.73
2023-02-14T17:43:51.342Z,6.67
2023-02-14T17:46:20.885Z,6.62
2023-02-14T17:48:49.206Z,6.59
2023-02-14T17:51:18.119Z,6.55
2023-02-14T17:53:44.828Z,6.51
2023-02-14T17:56:14.733Z,6.48
2023-02-14T17:58:41.714Z,6.43
2023-02-14T18:01:10.896Z,6.37
2023-02-14T18:03:39.108Z,6.33
2023-02-14T18:06:06.934Z,6.29
2023-02-14T18:08:39.207Z,6.31
2023-02-14T18:11:08.196Z,6.30
2023-02-14T18:13:35.400Z,6.22
2023-02-14T18:16:04.719Z,6.07
2023-02-14T18:18:32.779Z,5.97
2023-02-14T18:21:03.302Z,5.94
2023-02-14T18:23:32.926Z,5.94
2023-02-14T18:26:04.656Z,5.91
2023-02-14T18:28:32.771Z,5.85
2023-02-14T18:31:09.357Z,5.82
2023-02-14T18:33:37.683Z,5.76
2023-02-14T18:36:09.094Z,5.70
2023-02-14T18:38:36.268Z,5.69
2023-02-14T18:41:05.635Z,5.66
2023-02-14T18:43:32.659Z,5.53
2023-02-14T18:46:07.916Z,5.50
2023-02-14T18:48:37.364Z,5.47
2023-02-14T18:51:14.326Z,5.42
2023-02-14T18:53:44.390Z,5.38
2023-02-14T18:56:15.766Z,5.36
2023-02-14T18:58:49.059Z,5.32
2023-02-14T19:01:18.048Z,5.23
2023-02-14T19:03:45.730Z,5.14
2023-02-14T19:06:13.507Z,4.97
2023-02-14T19:08:41.839Z,4.89
2023-02-14T19:11:20.291Z,4.80
2023-02-14T19:13:58.710Z,4.78
2023-02-14T19:16:28.578Z,4.73
2023-02-14T19:18:55.963Z,4.67
2023-02-14T19:21:25.901Z,4.67
2023-02-14T19:23:57.269Z,4.69
2023-02-14T19:26:31.782Z,4.71
2023-02-14T19:29:04.854Z,4.69
2023-02-14T19:31:36.378Z,4.66
2023-02-14T19:34:05.177Z,4.65
2023-02-14T19:36:33.341Z,4.64
2023-02-14T19:39:00.181Z,4.58
2023-02-14T19:41:32.248Z,4.52
2023-02-14T19:43:59.909Z,4.51
2023-02-14T19:46:28.410Z,4.47
2023-02-14T19:49:06.289Z,4.47
2023-02-14T19:51:36.329Z,4.46
2023-02-14T19:54:12.838Z,4.43
2023-02-14T19:56:46.525Z,4.38
2023-02-14T20:02:04.516Z,4.38
2023-02-14T20:04:32.234Z,4.33
2023-02-14T20:06:59.280Z,4.27
2023-02-14T20:09:26.950Z,4.25
2023-02-14T20:11:56.357Z,4.25
2023-02-14T20:14:38.421Z,4.22
2023-02-14T20:17:15.149Z,4.18
2023-02-14T20:19:42.626Z,4.14
2023-02-14T20:22:09.401Z,4.10
2023-02-14T20:24:36.270Z,4.07
2023-02-14T20:27:03.918Z,4.04
2023-02-14T20:29:31.330Z,3.99
2023-02-14T20:32:00.262Z,3.96
2023-02-14T20:34:29.384Z,3.90
2023-02-14T20:36:57.222Z,3.85
2023-02-14T20:39:29.888Z,3.83
2023-02-14T20:41:56.875Z,3.83
2023-02-14T20:44:25.664Z,3.82
2023-02-14T20:46:53.399Z,3.80
2023-02-14T20:49:23.685Z,3.78
2023-02-14T20:51:51.398Z,3.74
2023-02-14T20:54:24.373Z,3.69
2023-02-14T20:56:51.651Z,3.65
2023-02-14T20:59:29.224Z,3.60
2023-02-14T21:01:59.940Z,3.61
2023-02-14T21:04:27.469Z,3.57
2023-02-14T21:06:54.764Z,3.53
2023-02-14T21:09:22.142Z,3.48
2023-02-14T21:11:50.536Z,3.42
2023-02-14T21:14:18.302Z,3.38
2023-02-14T21:16:48.530Z,3.36
2023-02-14T21:19:15.439Z,3.31
2023-02-14T21:21:42.912Z,3.30
2023-02-14T21:24:16.093Z,3.25
2023-02-14T21:26:44.809Z,3.20
2023-02-14T21:29:11.574Z,3.15
2023-02-14T21:31:38.732Z,3.14
2023-02-14T21:34:06.026Z,3.13
2023-02-14T21:36:38.691Z,3.08
2023-02-14T21:39:10.917Z,3.03
2023-02-14T21:41:37.992Z,2.97
2023-02-14T21:44:05.933Z,2.87
2023-02-14T21:46:37.200Z,2.76
2023-02-14T21:49:23.955Z,2.76
2023-02-14T21:51:50.858Z,2.76
2023-02-14T21:54:18.076Z,2.76
2023-02-14T21:56:45.303Z,2.71
2023-02-14T22:01:53.525Z,2.66
2023-02-14T22:04:20.279Z,2.58
2023-02-14T22:06:47.279Z,2.48
2023-02-14T22:09:15.095Z,2.47
2023-02-14T22:11:41.908Z,2.47
2023-02-14T22:14:09.076Z,2.42
2023-02-14T22:16:38.892Z,2.40
2023-02-14T22:19:07.075Z,2.36
2023-02-14T22:21:34.522Z,2.25
2023-02-14T22:24:02.401Z,2.24
2023-02-14T22:26:31.629Z,2.26
2023-02-14T22:29:00.379Z,2.17
2023-02-14T22:31:30.264Z,2.08
2023-02-14T22:33:57.209Z,2.02
2023-02-14T22:36:24.502Z,1.88
2023-02-14T22:38:51.526Z,1.82
2023-02-14T22:41:22.082Z,1.73
2023-02-14T22:43:49.556Z,1.69
2023-02-14T22:46:20.255Z,1.78
2023-02-14T22:48:48.898Z,1.77
2023-02-14T22:51:24.076Z,1.75
2023-02-14T22:53:53.206Z,1.61
2023-02-14T22:56:29.356Z,1.56
2023-02-14T22:58:58.204Z,1.59
2023-02-14T23:01:25.336Z,1.64
2023-02-14T23:03:57.578Z,1.64
2023-02-14T23:06:26.070Z,1.63
2023-02-14T23:08:55.617Z,1.66
2023-02-14T23:11:25.673Z,1.65
2023-02-14T23:14:12.691Z,1.68
2023-02-14T23:16:58.644Z,1.66
2023-02-14T23:19:49.676Z,1.64
2023-02-14T23:22:22.325Z,1.61
2023-02-14T23:24:51.348Z,1.64
2023-02-14T23:27:21.919Z,1.66
2023-02-14T23:29:49.554Z,1.67
2023-02-14T23:32:17.156Z,1.67
2023-02-14T23:34:45.818Z,1.66
2023-02-14T23:37:14.265Z,1.68
2023-02-14T23:39:41.719Z,1.66
2023-02-14T23:42:13.941Z,1.66
2023-02-14T23:44:42.261Z,1.66
2023-02-14T23:47:11.132Z,1.64
2023-02-14T23:49:39.745Z,1.63
2023-02-14T23:52:15.541Z,1.56
2023-02-14T23:54:42.475Z,1.51
2023-02-14T23:57:09.546Z,1.50
2023-02-14T23:59:36.492Z,1.48
